createdAt,value
2018-05-04T00:00:42.096Z,1.60
2018-05-04T00:03:09.532Z,1.23
2018-05-04T00:05:36.972Z,1.27
2018-05-04T00:08:05.170Z,1.30
2018-05-04T00:10:32.600Z,1.50
2018-05-04T00:13:00.817Z,1.70
2018-05-04T00:15:28.266Z,2.13
2018-05-04T00:17:55.706Z,3.03
2018-05-04T00:20:23.132Z,1.90
2018-05-04T00:22:51.332Z,1.67
2018-05-04T00:25:18.760Z,1.80
2018-05-04T00:27:46.977Z,3.23
2018-05-04T00:30:14.413Z,2.00
2018-05-04T00:32:41.902Z,1.70
2018-05-04T00:35:09.335Z,1.70
2018-05-04T00:37:36.773Z,2.17
2018-05-04T00:40:04.209Z,1.40
2018-05-04T00:42:32.420Z,1.80
2018-05-04T00:44:59.857Z,1.60
2018-05-04T00:47:28.073Z,2.53
2018-05-04T00:49:55.513Z,1.80
2018-05-04T00:52:22.947Z,2.80
2018-05-04T00:54:50.384Z,1.80
2018-05-04T00:57:18.590Z,1.50
2018-05-04T00:59:46.017Z,1.50
2018-05-04T01:02:14.221Z,1.90
2018-05-04T01:04:41.656Z,1.53
2018-05-04T01:07:09.084Z,1.60
2018-05-04T01:09:36.516Z,1.60
2018-05-04T01:12:03.940Z,2.40
2018-05-04T01:14:31.401Z,1.50
2018-05-04T01:16:58.855Z,1.93
2018-05-04T01:19:26.316Z,2.23
2018-05-04T01:21:53.765Z,1.90
2018-05-04T01:24:21.973Z,1.60
2018-05-04T01:26:49.424Z,1.77
2018-05-04T01:29:16.864Z,1.67
2018-05-04T01:31:44.298Z,2.30
2018-05-04T01:34:11.739Z,1.80
2018-05-04T01:36:39.169Z,1.80
2018-05-04T01:39:07.416Z,1.30
2018-05-04T01:41:34.848Z,1.90
2018-05-04T01:44:02.287Z,1.40
2018-05-04T01:46:29.727Z,1.50
2018-05-04T01:48:57.933Z,1.57
2018-05-04T01:51:25.361Z,1.50
2018-05-04T01:53:53.569Z,1.80
2018-05-04T01:56:21.045Z,1.20
2018-05-04T01:58:48.504Z,1.50
2018-05-04T02:01:15.940Z,1.50
2018-05-04T02:03:43.372Z,1.50
2018-05-04T02:06:10.797Z,1.50
2018-05-04T02:08:39.010Z,1.50
2018-05-04T02:11:06.445Z,2.00
2018-05-04T02:13:33.888Z,1.50
2018-05-04T02:16:02.134Z,1.70
2018-05-04T02:18:29.577Z,1.80
2018-05-04T02:20:57.014Z,2.30
2018-05-04T02:23:24.468Z,1.83
2018-05-04T02:25:51.915Z,1.93
2018-05-04T02:28:19.401Z,1.63
2018-05-04T02:30:46.807Z,1.60
2018-05-04T02:33:15.024Z,1.80
2018-05-04T02:35:42.479Z,1.67
2018-05-04T02:38:09.900Z,1.80
2018-05-04T02:40:37.367Z,1.30
2018-05-04T02:43:05.534Z,1.53
2018-05-04T02:45:32.996Z,1.43
2018-05-04T02:48:00.487Z,1.53
2018-05-04T02:50:27.917Z,1.40
2018-05-04T02:52:55.350Z,1.80
2018-05-04T02:55:22.843Z,1.67
2018-05-04T02:57:50.258Z,1.70
2018-05-04T03:00:17.701Z,2.67
2018-05-04T03:02:45.901Z,2.43
2018-05-04T03:05:13.341Z,1.63
2018-05-04T03:07:40.790Z,1.67
2018-05-04T03:10:08.993Z,2.23
2018-05-04T03:12:36.439Z,2.30
2018-05-04T03:15:04.681Z,1.77
2018-05-04T03:17:32.880Z,1.90
2018-05-04T03:20:00.344Z,1.60
2018-05-04T03:22:28.541Z,1.63
2018-05-04T03:24:55.989Z,1.57
2018-05-04T03:27:23.453Z,1.30
2018-05-04T03:29:51.660Z,1.30
2018-05-04T03:32:19.093Z,1.60
2018-05-04T03:34:46.541Z,1.50
2018-05-04T03:37:13.976Z,1.50
2018-05-04T03:39:42.168Z,2.43
2018-05-04T03:42:09.644Z,2.47
2018-05-04T03:44:37.102Z,1.20
2018-05-04T03:47:05.372Z,1.33
2018-05-04T03:49:32.837Z,1.20
2018-05-04T03:52:00.347Z,1.73
2018-05-04T03:54:27.728Z,1.30
2018-05-04T03:57:07.866Z,1.20
2018-05-04T03:59:47.253Z,1.40
2018-05-04T04:02:26.561Z,1.27
2018-05-04T04:04:53.963Z,1.40
2018-05-04T04:07:21.388Z,1.10
2018-05-04T04:09:48.816Z,1.50
2018-05-04T04:12:16.288Z,1.30
2018-05-04T04:14:43.745Z,1.93
2018-05-04T04:17:11.209Z,1.40
2018-05-04T04:19:38.640Z,1.10
2018-05-04T04:22:06.098Z,1.40
2018-05-04T04:24:35.046Z,1.43
2018-05-04T04:27:02.488Z,1.80
2018-05-04T04:29:30.693Z,1.40
2018-05-04T04:31:58.144Z,1.30
2018-05-04T04:34:25.576Z,1.30
2018-05-04T04:36:53.784Z,1.60
2018-05-04T04:39:21.217Z,1.50
2018-05-04T04:41:48.653Z,1.13
2018-05-04T04:44:16.869Z,1.30
2018-05-04T04:46:44.352Z,1.30
2018-05-04T04:49:11.793Z,1.03
2018-05-04T04:51:39.308Z,1.20
2018-05-04T04:54:06.685Z,1.43
2018-05-04T04:56:35.258Z,1.20
2018-05-04T04:59:02.744Z,1.17
2018-05-04T05:01:30.184Z,1.20
2018-05-04T05:03:57.633Z,1.10
2018-05-04T05:06:25.069Z,1.10
2018-05-04T05:08:53.291Z,1.20
2018-05-04T05:11:21.541Z,1.27
2018-05-04T05:13:48.969Z,1.20
2018-05-04T05:16:17.169Z,1.30
2018-05-04T05:18:44.621Z,1.00
2018-05-04T05:21:12.050Z,1.30
2018-05-04T05:23:40.272Z,2.20
2018-05-04T05:26:07.822Z,2.67
2018-05-04T05:28:35.341Z,2.77
2018-05-04T05:31:02.777Z,1.97
2018-05-04T05:33:30.227Z,1.60
2018-05-04T05:35:57.656Z,1.70
2018-05-04T05:38:25.088Z,2.50
2018-05-04T05:40:52.516Z,1.80
2018-05-04T05:43:20.720Z,1.57
2018-05-04T05:45:48.156Z,1.67
2018-05-04T05:48:15.674Z,1.53
2018-05-04T05:50:43.101Z,1.33
2018-05-04T05:53:10.539Z,1.50
2018-05-04T05:55:37.964Z,1.30
2018-05-04T05:58:06.202Z,1.70
2018-05-04T06:00:34.368Z,2.80
2018-05-04T06:03:01.804Z,1.70
2018-05-04T06:05:29.238Z,2.30
2018-05-04T06:07:56.681Z,2.67
2018-05-04T06:10:24.879Z,2.07
2018-05-04T06:12:52.325Z,4.70
2018-05-04T06:15:19.898Z,3.60
2018-05-04T06:17:47.325Z,4.97
2018-05-04T06:20:15.557Z,5.37
2018-05-04T06:22:43.001Z,4.17
2018-05-04T06:25:10.610Z,4.10
2018-05-04T06:27:37.926Z,5.57
2018-05-04T06:30:05.349Z,5.73
2018-05-04T06:32:32.792Z,4.80
2018-05-04T06:35:00.233Z,4.53
2018-05-04T06:37:28.437Z,4.43
2018-05-04T06:39:55.911Z,4.80
2018-05-04T06:42:23.348Z,6.67
2018-05-04T06:44:50.826Z,6.53
2018-05-04T06:47:18.279Z,6.80
2018-05-04T06:49:45.724Z,6.53
2018-05-04T06:52:13.161Z,6.30
2018-05-04T06:54:40.594Z,5.30
2018-05-04T06:57:08.799Z,5.23
2018-05-04T06:59:37.000Z,5.63
2018-05-04T07:02:04.444Z,5.87
2018-05-04T07:04:31.888Z,7.30
2018-05-04T07:06:59.322Z,7.03
2018-05-04T07:09:26.760Z,5.47
2018-05-04T07:11:54.960Z,7.27
2018-05-04T07:14:22.399Z,6.37
2018-05-04T07:16:50.627Z,6.90
2018-05-04T07:19:18.069Z,7.10
2018-05-04T07:21:45.511Z,6.63
2018-05-04T07:24:12.948Z,6.77
2018-05-04T07:26:41.145Z,6.97
2018-05-04T07:29:08.607Z,6.67
2018-05-04T07:31:36.076Z,5.53
2018-05-04T07:34:03.525Z,5.30
2018-05-04T07:36:30.967Z,5.37
2018-05-04T07:38:58.403Z,5.37
2018-05-04T07:41:25.837Z,5.37
2018-05-04T07:43:54.047Z,5.53
2018-05-04T07:46:21.473Z,6.27
2018-05-04T07:48:49.773Z,6.07
2018-05-04T07:51:17.884Z,5.17
2018-05-04T07:53:46.862Z,5.80
2018-05-04T07:56:14.329Z,6.37
2018-05-04T07:58:41.771Z,6.10
2018-05-04T08:01:09.204Z,6.30
2018-05-04T08:03:36.647Z,5.73
2018-05-04T08:06:04.851Z,5.80
2018-05-04T08:08:32.337Z,5.83
2018-05-04T08:10:59.727Z,4.47
2018-05-04T08:13:28.058Z,5.57
2018-05-04T08:15:55.526Z,5.87
2018-05-04T08:18:22.964Z,5.60
2018-05-04T08:20:50.409Z,5.77
2018-05-04T08:23:17.851Z,4.97
2018-05-04T08:25:45.290Z,5.60
2018-05-04T08:28:12.724Z,5.00
2018-05-04T08:30:40.938Z,4.40
2018-05-04T08:33:08.374Z,4.57
2018-05-04T08:35:36.589Z,4.70
2018-05-04T08:38:04.048Z,4.27
2018-05-04T08:40:31.595Z,3.90
2018-05-04T08:42:59.078Z,4.30
2018-05-04T08:45:26.464Z,3.70
2018-05-04T08:47:54.689Z,4.73
2018-05-04T08:50:22.156Z,4.90
2018-05-04T08:52:49.599Z,4.93
2018-05-04T08:55:17.058Z,4.60
2018-05-04T08:57:44.503Z,4.17
2018-05-04T09:00:11.935Z,4.47
2018-05-04T09:02:39.370Z,4.50
2018-05-04T09:05:07.651Z,4.07
2018-05-04T09:07:35.008Z,4.47
2018-05-04T09:10:03.274Z,3.80
2018-05-04T09:12:31.483Z,4.00
2018-05-04T09:14:58.920Z,4.57
2018-05-04T09:17:26.374Z,4.23
2018-05-04T09:19:54.596Z,4.00
2018-05-04T09:22:22.036Z,4.40
2018-05-04T09:24:50.714Z,3.83
2018-05-04T09:27:18.144Z,4.53
2018-05-04T09:29:46.370Z,4.60
2018-05-04T09:32:13.847Z,4.50
2018-05-04T09:34:41.277Z,4.07
2018-05-04T09:37:08.784Z,3.60
2018-05-04T09:39:36.207Z,4.43
2018-05-04T09:42:03.644Z,4.47
2018-05-04T09:44:31.848Z,4.10
2018-05-04T09:46:59.297Z,4.33
2018-05-04T09:49:26.726Z,4.53
2018-05-04T09:51:54.176Z,4.20
2018-05-04T09:54:21.625Z,4.40
2018-05-04T09:56:49.082Z,4.33
2018-05-04T09:59:16.516Z,4.70
2018-05-04T10:01:44.718Z,4.97
2018-05-04T10:04:12.149Z,5.53
2018-05-04T10:06:39.590Z,5.93
2018-05-04T10:09:07.849Z,5.20
2018-05-04T10:11:35.264Z,5.30
2018-05-04T10:14:02.709Z,5.90
2018-05-04T10:16:30.167Z,5.60
2018-05-04T10:18:57.588Z,5.80
2018-05-04T10:21:25.802Z,5.37
2018-05-04T10:23:53.232Z,5.90
2018-05-04T10:26:20.685Z,5.53
2018-05-04T10:28:48.115Z,6.10
2018-05-04T10:31:15.560Z,6.40
2018-05-04T10:33:43.780Z,6.30
2018-05-04T10:36:11.223Z,6.40
2018-05-04T10:38:39.521Z,6.23
2018-05-04T10:41:06.881Z,6.47
2018-05-04T10:43:34.314Z,6.07
2018-05-04T10:46:02.533Z,6.10
2018-05-04T10:48:30.749Z,5.77
2018-05-04T10:50:58.952Z,6.43
2018-05-04T10:53:26.392Z,6.37
2018-05-04T10:55:53.829Z,6.13
2018-05-04T10:58:22.042Z,5.93
2018-05-04T11:00:49.476Z,6.13
2018-05-04T11:03:17.703Z,6.73
2018-05-04T11:05:45.140Z,6.33
2018-05-04T11:08:12.596Z,6.73
2018-05-04T11:10:40.039Z,5.90
2018-05-04T11:13:07.481Z,6.77
2018-05-04T11:15:34.921Z,6.37
2018-05-04T11:18:03.124Z,5.70
2018-05-04T11:20:30.564Z,5.87
2018-05-04T11:22:58.778Z,5.47
2018-05-04T11:25:26.275Z,6.43
2018-05-04T11:27:53.685Z,7.60
2018-05-04T11:30:21.124Z,5.93
2018-05-04T11:32:48.572Z,6.13
2018-05-04T11:35:16.017Z,6.13
2018-05-04T11:37:44.239Z,6.27
2018-05-04T11:40:11.676Z,6.33
2018-05-04T11:42:39.141Z,6.50
2018-05-04T11:45:06.581Z,6.23
2018-05-04T11:47:34.033Z,7.27
2018-05-04T11:50:02.256Z,6.20
2018-05-04T11:52:29.713Z,6.33
2018-05-04T11:54:57.160Z,6.37
2018-05-04T11:57:24.595Z,5.83
2018-05-04T11:59:52.037Z,6.47
2018-05-04T12:02:19.538Z,5.80
2018-05-04T12:04:47.681Z,6.50
2018-05-04T12:07:15.117Z,6.07
2018-05-04T12:09:42.558Z,6.00
2018-05-04T12:12:10.777Z,6.10
2018-05-04T12:14:38.212Z,5.60
2018-05-04T12:17:05.645Z,5.73
2018-05-04T12:19:33.864Z,6.00
2018-05-04T12:22:01.303Z,5.83
2018-05-04T12:24:28.733Z,6.10
2018-05-04T12:26:56.945Z,4.97
2018-05-04T12:29:24.411Z,5.60
2018-05-04T12:31:51.864Z,5.30
2018-05-04T12:34:19.315Z,5.50
2018-05-04T12:36:46.749Z,6.33
2018-05-04T12:39:14.197Z,5.23
2018-05-04T12:41:42.400Z,5.50
2018-05-04T12:44:09.840Z,6.20
2018-05-04T12:46:37.272Z,5.30
2018-05-04T12:49:05.572Z,6.07
2018-05-04T12:51:33.780Z,5.40
2018-05-04T12:54:01.223Z,6.03
2018-05-04T12:56:28.652Z,6.37
2018-05-04T12:58:56.864Z,6.10
2018-05-04T13:01:25.063Z,5.53
2018-05-04T13:03:52.551Z,5.50
2018-05-04T13:06:20.780Z,4.90
2018-05-04T13:08:48.994Z,5.03
2018-05-04T13:11:16.433Z,6.87
2018-05-04T13:13:43.874Z,6.23
2018-05-04T13:16:11.309Z,5.07
2018-05-04T13:18:38.748Z,5.70
2018-05-04T13:21:06.197Z,5.20
2018-05-04T13:23:34.417Z,5.77
2018-05-04T13:26:01.849Z,6.00
2018-05-04T13:28:29.297Z,6.40
2018-05-04T13:30:56.733Z,6.07
2018-05-04T13:33:25.034Z,5.50
2018-05-04T13:35:52.377Z,5.70
2018-05-04T13:38:19.821Z,6.57
2018-05-04T13:40:48.066Z,5.50
2018-05-04T13:43:15.501Z,6.30
2018-05-04T13:45:42.946Z,5.37
2018-05-04T13:48:10.396Z,5.57
2018-05-04T13:50:37.920Z,5.97
2018-05-04T13:53:05.292Z,5.63
2018-05-04T13:55:32.742Z,6.77
2018-05-04T13:58:00.942Z,5.70
2018-05-04T14:00:28.388Z,6.80
2018-05-04T14:02:56.590Z,5.80
2018-05-04T14:05:24.064Z,5.97
2018-05-04T14:07:51.533Z,6.90
2018-05-04T14:10:20.484Z,5.80
2018-05-04T14:12:48.018Z,6.63
2018-05-04T14:15:15.380Z,6.30
2018-05-04T14:17:42.811Z,5.53
2018-05-04T14:20:11.041Z,6.77
2018-05-04T14:22:38.501Z,6.93
2018-05-04T14:25:05.945Z,6.43
2018-05-04T14:27:33.377Z,5.67
2018-05-04T14:30:01.591Z,5.70
2018-05-04T14:32:29.027Z,6.23
2018-05-04T14:34:56.529Z,4.50
2018-05-04T14:37:23.939Z,5.83
2018-05-04T14:39:51.394Z,5.17
2018-05-04T14:42:18.837Z,6.27
2018-05-04T14:44:46.289Z,5.70
2018-05-04T14:47:14.513Z,5.03
2018-05-04T14:49:41.964Z,5.67
2018-05-04T14:52:10.338Z,5.43
2018-05-04T14:54:37.782Z,5.70
2018-05-04T14:57:05.351Z,5.50
2018-05-04T14:59:32.780Z,4.87
2018-05-04T15:02:00.229Z,5.53
2018-05-04T15:04:29.610Z,5.97
2018-05-04T15:06:57.111Z,5.67
2018-05-04T15:09:25.036Z,5.30
2018-05-04T15:11:52.583Z,5.00
2018-05-04T15:14:19.976Z,5.60
2018-05-04T15:16:47.435Z,5.60
2018-05-04T15:19:14.873Z,5.47
2018-05-04T15:21:43.077Z,5.53
2018-05-04T15:24:10.580Z,6.40
2018-05-04T15:26:38.785Z,5.50
2018-05-04T15:29:06.986Z,5.77
2018-05-04T15:31:34.501Z,6.17
2018-05-04T15:34:02.628Z,5.30
2018-05-04T15:36:30.065Z,5.63
2018-05-04T15:38:57.504Z,5.60
2018-05-04T15:41:25.751Z,6.27
2018-05-04T15:43:53.211Z,5.07
2018-05-04T15:46:20.656Z,5.90
2018-05-04T15:48:53.783Z,5.70
2018-05-04T15:51:27.659Z,5.60
2018-05-04T15:53:55.104Z,5.97
2018-05-04T15:56:22.562Z,5.97
2018-05-04T15:58:50.762Z,5.87
2018-05-04T16:01:18.233Z,5.43
2018-05-04T16:03:46.437Z,5.63
2018-05-04T16:06:13.977Z,6.37
2018-05-04T16:08:42.076Z,5.20
2018-05-04T16:11:09.529Z,4.77
2018-05-04T16:13:37.002Z,5.30
2018-05-04T16:16:05.190Z,4.93
2018-05-04T16:18:32.630Z,5.33
2018-05-04T16:21:00.081Z,4.70
2018-05-04T16:23:27.539Z,5.47
2018-05-04T16:25:55.753Z,5.47
2018-05-04T16:28:23.189Z,5.30
2018-05-04T16:30:50.625Z,5.77
2018-05-04T16:33:18.069Z,6.17
2018-05-04T16:35:45.497Z,5.30
2018-05-04T16:38:13.733Z,5.60
2018-05-04T16:40:41.149Z,5.77
2018-05-04T16:43:08.589Z,5.80
2018-05-04T16:45:36.793Z,5.13
2018-05-04T16:48:09.835Z,4.97
2018-05-04T16:50:37.306Z,4.77
2018-05-04T16:53:04.757Z,5.60
2018-05-04T16:55:32.232Z,5.53
2018-05-04T16:58:00.448Z,4.47
2018-05-04T17:00:28.644Z,4.57
2018-05-04T17:02:56.109Z,4.20
2018-05-04T17:05:24.341Z,4.67
2018-05-04T17:07:51.791Z,5.50
2018-05-04T17:10:19.219Z,5.00
2018-05-04T17:12:47.506Z,4.07
2018-05-04T17:15:14.936Z,5.17
2018-05-04T17:17:42.371Z,4.73
2018-05-04T17:20:09.813Z,5.23
2018-05-04T17:22:37.259Z,5.93
2018-05-04T17:25:04.715Z,5.30
2018-05-04T17:27:32.147Z,5.37
2018-05-04T17:29:59.582Z,4.77
2018-05-04T17:32:27.821Z,4.97
2018-05-04T17:34:55.284Z,4.03
2018-05-04T17:37:22.735Z,4.77
2018-05-04T17:39:50.161Z,5.23
2018-05-04T17:42:17.860Z,5.13
2018-05-04T17:44:45.290Z,4.77
2018-05-04T17:47:12.809Z,4.77
2018-05-04T17:49:40.222Z,3.90
2018-05-04T17:52:07.671Z,4.83
2018-05-04T17:54:35.137Z,4.50
2018-05-04T17:57:02.641Z,5.20
2018-05-04T17:59:30.092Z,4.60
2018-05-04T18:01:58.298Z,5.10
2018-05-04T18:04:25.760Z,4.47
2018-05-04T18:06:53.290Z,4.50
2018-05-04T18:09:21.644Z,5.27
2018-05-04T18:11:49.235Z,5.27
2018-05-04T18:14:16.813Z,4.90
2018-05-04T18:16:44.280Z,4.97
2018-05-04T18:19:12.522Z,4.23
2018-05-04T18:21:40.040Z,4.37
2018-05-04T18:24:07.520Z,4.33
2018-05-04T18:26:35.843Z,3.97
2018-05-04T18:29:03.362Z,4.13
2018-05-04T18:31:31.656Z,4.33
2018-05-04T18:33:59.153Z,4.30
2018-05-04T18:36:27.512Z,4.70
2018-05-04T18:38:54.960Z,4.57
2018-05-04T18:41:22.407Z,3.87
2018-05-04T18:43:49.857Z,4.20
2018-05-04T18:46:17.288Z,3.47
2018-05-04T18:48:44.719Z,4.20
2018-05-04T18:51:12.153Z,3.03
2018-05-04T18:53:39.601Z,3.00
2018-05-04T18:56:07.032Z,2.80
2018-05-04T18:58:35.257Z,2.70
2018-05-04T19:01:02.686Z,3.30
2018-05-04T19:03:30.160Z,3.60
2018-05-04T19:05:57.609Z,3.10
2018-05-04T19:08:25.051Z,2.57
2018-05-04T19:10:52.503Z,2.03
2018-05-04T19:13:19.945Z,2.00
2018-05-04T19:15:47.437Z,2.70
2018-05-04T19:18:14.895Z,2.67
2018-05-04T19:20:42.352Z,1.90
2018-05-04T19:23:09.795Z,1.83
2018-05-04T19:25:37.232Z,2.10
2018-05-04T19:28:05.456Z,1.90
2018-05-04T19:30:32.893Z,2.20
2018-05-04T19:33:00.393Z,2.20
2018-05-04T19:35:27.833Z,1.60
2018-05-04T19:37:55.273Z,2.10
2018-05-04T19:40:22.741Z,1.70
2018-05-04T19:42:50.174Z,2.60
2018-05-04T19:45:17.628Z,1.90
2018-05-04T19:50:13.862Z,1.83
2018-05-04T19:52:41.382Z,1.90
2018-05-04T19:55:09.594Z,2.07
2018-05-04T19:57:37.069Z,2.00
2018-05-04T20:00:04.508Z,2.03
2018-05-04T20:02:31.972Z,1.80
2018-05-04T20:04:59.409Z,1.83
2018-05-04T20:07:26.848Z,1.67
2018-05-04T20:09:55.061Z,1.77
2018-05-04T20:12:24.305Z,1.67
2018-05-04T20:14:51.782Z,1.63
2018-05-04T20:17:19.988Z,2.10
2018-05-04T20:19:47.497Z,1.50
2018-05-04T20:22:15.965Z,1.87
2018-05-04T20:24:43.485Z,1.70
2018-05-04T20:27:11.948Z,1.93
2018-05-04T20:29:40.191Z,1.77
2018-05-04T20:32:08.399Z,1.93
2018-05-04T20:34:35.836Z,1.90
2018-05-04T20:37:03.268Z,1.90
2018-05-04T20:39:30.711Z,1.50
2018-05-04T20:41:58.337Z,1.57
2018-05-04T20:44:25.890Z,1.60
2018-05-04T20:46:53.300Z,1.90
2018-05-04T20:49:21.506Z,1.80
2018-05-04T20:51:48.971Z,2.33
2018-05-04T20:54:16.464Z,2.47
2018-05-04T20:56:44.089Z,1.90
2018-05-04T20:59:11.582Z,1.90
2018-05-04T21:01:39.981Z,1.60
2018-05-04T21:04:07.474Z,1.63
2018-05-04T21:06:34.900Z,1.97
2018-05-04T21:09:03.320Z,3.30
2018-05-04T21:11:30.800Z,3.50
2018-05-04T21:13:58.304Z,4.27
2018-05-04T21:16:25.776Z,4.77
2018-05-04T21:18:54.182Z,3.50
2018-05-04T21:21:21.682Z,3.63
2018-05-04T21:23:49.228Z,4.30
2018-05-04T21:26:16.675Z,3.80
2018-05-04T21:28:44.109Z,2.90
2018-05-04T21:31:11.566Z,3.30
2018-05-04T21:33:38.997Z,3.00
2018-05-04T21:36:06.453Z,3.20
2018-05-04T21:38:33.887Z,3.37
2018-05-04T21:41:02.101Z,2.57
2018-05-04T21:43:29.559Z,3.40
2018-05-04T21:45:57.012Z,3.20
2018-05-04T21:48:24.447Z,3.60
2018-05-04T21:50:52.645Z,3.87
2018-05-04T21:53:20.313Z,3.97
2018-05-04T21:55:47.753Z,3.50
2018-05-04T21:58:15.196Z,4.40
2018-05-04T22:00:43.484Z,4.90
2018-05-04T22:03:10.943Z,4.03
2018-05-04T22:05:38.382Z,3.93
2018-05-04T22:08:05.833Z,4.20
2018-05-04T22:10:33.265Z,4.67
2018-05-04T22:13:01.476Z,3.20
2018-05-04T22:15:28.919Z,3.30
2018-05-04T22:17:57.124Z,3.50
2018-05-04T22:20:24.567Z,2.57
2018-05-04T22:22:52.009Z,2.93
2018-05-04T22:25:19.482Z,2.53
2018-05-04T22:27:46.917Z,2.70
2018-05-04T22:30:14.344Z,2.50
2018-05-04T22:32:41.789Z,2.40
2018-05-04T22:35:09.224Z,2.57
2018-05-04T22:37:36.665Z,2.20
2018-05-04T22:40:04.097Z,2.57
2018-05-04T22:42:31.551Z,2.33
2018-05-04T22:44:59.010Z,1.70
2018-05-04T22:47:26.460Z,2.10
2018-05-04T22:49:54.661Z,2.13
2018-05-04T22:52:22.101Z,1.87
2018-05-04T22:54:49.536Z,2.43
2018-05-04T22:57:17.748Z,3.50
2018-05-04T22:59:45.305Z,2.90
2018-05-04T23:02:12.758Z,3.43
2018-05-04T23:04:40.192Z,3.03
2018-05-04T23:07:07.628Z,2.90
2018-05-04T23:09:35.837Z,2.50
2018-05-04T23:12:04.039Z,2.20
2018-05-04T23:14:31.481Z,2.10
2018-05-04T23:16:58.919Z,2.43
2018-05-04T23:19:26.365Z,2.70
2018-05-04T23:21:53.796Z,2.40
2018-05-04T23:24:22.007Z,2.53
2018-05-04T23:26:49.441Z,2.20
2018-05-04T23:29:17.649Z,2.67
2018-05-04T23:31:45.087Z,2.40
2018-05-04T23:34:12.534Z,2.10
2018-05-04T23:36:40.741Z,1.97
2018-05-04T23:39:08.180Z,1.90
2018-05-04T23:41:35.607Z,2.20
2018-05-04T23:44:03.810Z,1.80
2018-05-04T23:46:31.231Z,1.40
2018-05-04T23:48:59.444Z,2.00
2018-05-04T23:51:26.883Z,2.67
2018-05-04T23:53:54.346Z,2.13
2018-05-04T23:56:21.768Z,2.20
2018-05-04T23:58:49.971Z,1.77
